Accueil
METAR-TAF:

METAR-TAF

Aéroports :

Aéroport du Gloucestershire

Gloucester, Angleterre

latitude: 51-54N, longitude: 002-10W, altitude: 29 m

Observation

Le bulletin a été fait il y a 11 heures et 28 minutes, à 18:50 UTC
Vent 6 kt de sud
Température 11°C
Humidité 71%
Pression 1022 hPa
Visibilité 10 km ou plus
pas de nuages en-dessous de 1500 mètres et pas de cumulonimbus.

METAR: EGBJ 151850Z 18006KT CAVOK 11/06 Q1022

Heure: 06:18 (06:18 UTC)

Prévision

Le bulletin a été fait il y a 13 heures et 17 minutes, à 17:01 UTC
Prévision valable du 15 à 18 UTC au 15 à 20 UTC
Vent 8 kt de sud
Visibilité 10 km ou plus
pas de nuages en-dessous de 1500 mètres et pas de cumulonimbus.
Probabilité 30% :
Temporairement
du 15 à 18 UTC au 15 à 20 UTC
Visibilité: 8000 m

TAF: EGBJ 151701Z 1518/1520 17008KT CAVOK PROB30 TEMPO 1518/1520 8000

Observations et prévisions météorologiques de plus de 4000 aéroports (messages METAR et TAF).

Les stations disponibles sont représentées par des disques jaunes et rouges sur la carte.

Passer la souris dessus pour voir le nom de la station.

Cliquer dessus pour voir les observations et prévisions météorologiques.

Pour changer de carte: cliquez sur les boutons verts avec une croix noire pour zoomer, sur le bouton vert avec un tiret pour effectuer un zoom arrière, ou sur les flèches vertes pour les cartes adjacentes.


METAR-TAF: